Diesel — DIESEL — position and weather

sailwx.info

Track history (hours):
 
Tides and Currents Weather Stations Pressure Air Temp Water Temp Dewpoint Dewpoint Depression Visibility Wind Speed Wind Dir Waves Ship Positions

Diesel

Last reported at 2017-Dec-12 23:07 UTC. Time now 2017-Dec-17 02:38 UTC.
Position N 43°45' W 079°16'.

Length 14 m; draft 1.2 m.

Type: Pleasure craft. MMSI: 316025548.

Date/timePositionNaut miles runAvg speedWind from/ knotsBaromVisibWave heightAir tempDewpointWater temp
2017-Dec-12 23:07N 43°45' W 079°16'222.6
2017-Dec-12 23:00N 43°43' W 079°15'713.8
2017-Dec-12 22:29N 43°39' W 079°23'1325.9
2017-Dec-12 21:59N 43°31' W 079°38'12 1.7
2017-Dec-12 14:49N 43°21' W 079°48'0 0.0
2017-Dec-12 14:27N 43°21' W 079°48'0 0.9
2017-Dec-12 14:00N 43°21' W 079°48'816.8
2017-Dec-12 13:30N 43°27' W 079°41'1325.9
2017-Dec-12 13:00N 43°37' W 079°30'1211.1
2017-Dec-12 11:53N 43°45' W 079°16'  
2017-Dec-07 22:24N 43°38' W 079°29'1127.6
2017-Dec-07 22:00N 43°30' W 079°39'2 0.2
2017-Dec-07 12:20N 43°28' W 079°40'1131.8
2017-Dec-07 12:00N 43°36' W 079°31'612.3
2017-Dec-07 11:30N 43°39' W 079°23'  
Track history (hours):
 
Tides and Currents Weather Stations Pressure Air Temp Water Temp Dewpoint Dewpoint Depression Visibility Wind Speed Wind Dir Waves Ship Positions

Diesel

Last reported at 2017-Dec-12 23:07 UTC. Time now 2017-Dec-17 02:38 UTC.
Position N 43°45' W 079°16'.

Length 14 m; draft 1.2 m.

Type: Pleasure craft. MMSI: 316025548.

Date/timePositionNaut miles runAvg speedWind from/ knotsBaromVisibWave heightAir tempDewpointWater temp
2017-Dec-12 23:07N 43°45' W 079°16'222.6
2017-Dec-12 23:00N 43°43' W 079°15'713.8
2017-Dec-12 22:29N 43°39' W 079°23'1325.9
2017-Dec-12 21:59N 43°31' W 079°38'12 1.7
2017-Dec-12 14:49N 43°21' W 079°48'0 0.0
2017-Dec-12 14:27N 43°21' W 079°48'0 0.9
2017-Dec-12 14:00N 43°21' W 079°48'816.8
2017-Dec-12 13:30N 43°27' W 079°41'1325.9
2017-Dec-12 13:00N 43°37' W 079°30'1211.1
2017-Dec-12 11:53N 43°45' W 079°16'  
2017-Dec-07 22:24N 43°38' W 079°29'1127.6
2017-Dec-07 22:00N 43°30' W 079°39'2 0.2
2017-Dec-07 12:20N 43°28' W 079°40'1131.8
2017-Dec-07 12:00N 43°36' W 079°31'612.3
2017-Dec-07 11:30N 43°39' W 079°23'  

Dump ship's entire track history